Time;durP1;ratioP1;P1;durP2;ratioP2;P2;SDS_P1;SDS_P2;PMS_P1;PMS_P2;Temp;Humidity;BMP_temperature;BMP_pressure;BME280_temperature;BME280_humidity;BME280_pressure;Samples;Min_cycle;Max_cycle;Signal;HPM_P1;HPM_P2
2023/12/12 00:01:03;;;;;;;11.05;3.35;;;;;;;6.36;100.00;100621.56;5046499;28;20020;-61
2023/12/12 00:03:28;;;;;;;7.60;3.45;;;;;;;6.32;100.00;100611.94;5047178;28;20788;-61
2023/12/12 00:05:54;;;;;;;11.68;4.22;;;;;;;6.26;100.00;100612.53;5059870;28;20036;-61
2023/12/12 00:08:19;;;;;;;10.90;3.67;;;;;;;6.22;100.00;100616.66;5046216;28;20036;-62
2023/12/12 00:10:44;;;;;;;8.48;3.67;;;;;;;6.20;100.00;100615.72;5046142;28;20116;-62
2023/12/12 00:13:10;;;;;;;10.80;4.22;;;;;;;6.20;100.00;100618.31;5046568;28;20075;-61
2023/12/12 00:15:36;;;;;;;11.80;4.07;;;;;;;6.23;100.00;100623.56;5046376;28;20036;-62
2023/12/12 00:18:01;;;;;;;11.52;4.38;;;;;;;6.22;100.00;100621.78;5039323;28;20468;-62
2023/12/12 00:20:26;;;;;;;9.48;4.35;;;;;;;6.27;100.00;100623.72;5042162;28;20030;-61
2023/12/12 00:22:52;;;;;;;16.83;4.55;;;;;;;6.31;100.00;100623.94;5042659;28;20029;-62
2023/12/12 00:25:17;;;;;;;9.10;4.05;;;;;;;6.37;100.00;100620.75;5054916;28;20066;-62
2023/12/12 00:27:42;;;;;;;11.57;4.20;;;;;;;6.40;100.00;100613.19;5033524;28;20415;-63
2023/12/12 00:30:08;;;;;;;11.88;3.97;;;;;;;6.42;100.00;100614.09;5042997;28;20028;-61
2023/12/12 00:32:34;;;;;;;13.27;4.63;;;;;;;6.43;100.00;100615.88;5037121;28;20417;-62
2023/12/12 00:34:59;;;;;;;17.35;4.65;;;;;;;6.43;100.00;100623.63;5051011;28;20082;-61
2023/12/12 00:37:24;;;;;;;14.10;4.65;;;;;;;6.41;100.00;100620.09;5050128;28;20447;-62
2023/12/12 00:39:50;;;;;;;18.58;6.00;;;;;;;6.40;100.00;100626.06;5037449;28;20437;-61
2023/12/12 00:42:15;;;;;;;14.95;4.40;;;;;;;6.38;100.00;100622.53;5062240;28;20024;-62
2023/12/12 00:44:40;;;;;;;13.73;4.55;;;;;;;6.36;100.00;100624.16;5062664;28;20059;-62
2023/12/12 00:47:05;;;;;;;9.43;3.92;;;;;;;6.35;100.00;100618.09;5062533;28;20037;-62
2023/12/12 00:49:31;;;;;;;14.00;4.60;;;;;;;6.33;100.00;100609.44;5050831;28;20409;-62
2023/12/12 00:51:57;;;;;;;12.40;4.82;;;;;;;6.30;100.00;100608.41;5062280;28;20079;-62
2023/12/12 00:54:23;;;;;;;17.55;3.97;;;;;;;6.28;100.00;100610.06;5050318;28;20032;-62
2023/12/12 00:56:48;;;;;;;13.30;4.00;;;;;;;6.23;100.00;100613.28;5049793;28;20025;-62
2023/12/12 00:59:14;;;;;;;15.70;4.47;;;;;;;6.21;100.00;100608.88;5036978;28;20029;-62
2023/12/12 01:01:40;;;;;;;13.75;4.78;;;;;;;6.19;100.00;100613.09;5037629;28;20029;-62
2023/12/12 01:04:05;;;;;;;14.63;4.18;;;;;;;6.14;100.00;100607.72;5049714;28;20147;-61
2023/12/12 01:06:30;;;;;;;12.82;4.90;;;;;;;6.09;100.00;100610.06;5049268;28;20354;-62
2023/12/12 01:08:55;;;;;;;14.38;4.97;;;;;;;6.04;100.00;100605.50;5062325;28;20025;-62
2023/12/12 01:11:21;;;;;;;15.45;4.78;;;;;;;6.01;100.00;100607.09;5062589;28;20487;-61
2023/12/12 01:13:46;;;;;;;13.32;4.88;;;;;;;6.00;100.00;100615.66;5037332;28;20087;-62
2023/12/12 01:16:12;;;;;;;17.17;4.82;;;;;;;6.01;100.00;100606.22;5049237;28;20040;-61
2023/12/12 01:18:37;;;;;;;17.80;4.80;;;;;;;6.01;100.00;100601.97;5036207;28;20058;-62
2023/12/12 01:21:03;;;;;;;14.10;4.53;;;;;;;6.02;100.00;100597.69;5060181;28;20021;-61
2023/12/12 01:23:50;;;;;;;17.05;5.07;;;;;;;5.98;100.00;100590.63;5049351;28;20059;-62
2023/12/12 01:26:17;;;;;;;14.18;4.65;;;;;;;5.98;100.00;100588.97;5036503;28;20025;-61
2023/12/12 01:28:42;;;;;;;14.02;4.40;;;;;;;5.96;100.00;100582.84;5048333;28;20035;-62
2023/12/12 01:31:07;;;;;;;18.83;4.80;;;;;;;5.92;100.00;100580.94;5048999;28;20036;-62
2023/12/12 01:33:33;;;;;;;12.68;4.10;;;;;;;5.91;100.00;100584.34;5048783;28;20378;-62
2023/12/12 01:35:59;;;;;;;21.02;5.95;;;;;;;5.89;100.00;100586.84;5049668;28;20056;-62
2023/12/12 01:38:24;;;;;;;20.17;5.25;;;;;;;5.87;100.00;100591.03;5048450;28;20116;-61
2023/12/12 01:40:49;;;;;;;11.70;5.00;;;;;;;5.86;100.00;100580.66;5061401;28;20452;-62
2023/12/12 01:43:26;;;;;;;17.08;4.60;;;;;;;5.86;100.00;100585.81;5061472;28;20024;-62
2023/12/12 01:45:54;;;;;;;14.80;4.60;;;;;;;5.87;100.00;100579.84;5068897;28;20028;-62
2023/12/12 01:48:20;;;;;;;13.93;4.57;;;;;;;5.85;100.00;100579.78;5052250;28;20071;-61
2023/12/12 01:50:46;;;;;;;13.88;4.38;;;;;;;5.83;100.00;100577.97;5040188;28;20045;-61
2023/12/12 01:53:13;;;;;;;11.15;3.95;;;;;;;5.83;100.00;100581.38;5047094;28;20179;-62
2023/12/12 01:55:38;;;;;;;17.55;4.50;;;;;;;5.86;100.00;100585.81;5049535;28;20037;-61
2023/12/12 01:58:03;;;;;;;18.27;4.63;;;;;;;5.84;100.00;100579.72;5045859;28;20075;-62
2023/12/12 02:00:29;;;;;;;16.75;4.95;;;;;;;5.82;100.00;100584.78;5048261;28;20025;-61
2023/12/12 02:02:54;;;;;;;21.85;4.68;;;;;;;5.81;100.00;100582.16;5035733;28;20035;-62
2023/12/12 02:05:20;;;;;;;14.63;4.88;;;;;;;5.83;100.00;100577.97;5047963;28;20033;-62
2023/12/12 02:07:47;;;;;;;19.40;5.07;;;;;;;5.81;100.00;100570.16;5047780;28;20024;-61
2023/12/12 02:10:13;;;;;;;15.18;5.40;;;;;;;5.79;100.00;100573.47;5047930;28;20017;-61
2023/12/12 02:12:38;;;;;;;14.75;5.63;;;;;;;5.75;100.00;100575.91;5048791;28;20427;-62
2023/12/12 02:15:04;;;;;;;12.57;5.50;;;;;;;5.74;100.00;100581.84;5048054;28;20024;-61
2023/12/12 02:17:29;;;;;;;14.77;5.57;;;;;;;5.75;100.00;100578.47;5046748;28;20018;-62
2023/12/12 02:19:57;;;;;;;14.25;5.38;;;;;;;5.74;100.00;100579.25;5048293;28;20029;-62
2023/12/12 02:22:22;;;;;;;12.35;5.47;;;;;;;5.68;100.00;100570.38;5049071;28;20377;-61
2023/12/12 02:24:48;;;;;;;14.88;5.18;;;;;;;5.65;100.00;100563.38;5047390;28;20025;-61
2023/12/12 02:27:13;;;;;;;17.20;4.95;;;;;;;5.65;100.00;100565.97;5048946;28;20574;-62
2023/12/12 02:29:38;;;;;;;17.90;4.68;;;;;;;5.61;100.00;100564.06;5055276;28;20551;-62
2023/12/12 02:32:04;;;;;;;20.20;5.22;;;;;;;5.59;100.00;100565.69;5047753;28;20087;-61
2023/12/12 02:34:29;;;;;;;19.02;4.85;;;;;;;5.59;100.00;100561.44;5046823;28;20028;-61
2023/12/12 02:36:54;;;;;;;22.73;5.60;;;;;;;5.55;100.00;100563.75;5045706;28;20036;-62
2023/12/12 02:39:19;;;;;;;19.90;4.80;;;;;;;5.56;100.00;100555.25;5042219;28;20064;-62
2023/12/12 02:41:45;;;;;;;14.18;4.30;;;;;;;5.53;100.00;100554.31;5042381;28;20039;-61
2023/12/12 02:44:10;;;;;;;17.73;4.45;;;;;;;5.51;100.00;100558.47;5048054;28;20052;-62
2023/12/12 02:46:36;;;;;;;18.17;5.45;;;;;;;5.53;100.00;100556.88;5034146;28;20025;-61
2023/12/12 02:49:01;;;;;;;13.75;5.18;;;;;;;5.50;100.00;100559.31;5036767;28;20053;-61
2023/12/12 02:51:26;;;;;;;19.42;4.93;;;;;;;5.48;100.00;100562.59;5043179;28;20103;-61
2023/12/12 02:53:51;;;;;;;20.38;5.18;;;;;;;5.46;100.00;100559.97;5047478;28;20075;-61
2023/12/12 02:56:17;;;;;;;22.05;5.70;;;;;;;5.42;100.00;100558.03;5046458;28;20056;-61
2023/12/12 02:58:42;;;;;;;15.38;5.38;;;;;;;5.39;100.00;100557.91;5053741;28;20028;-62
2023/12/12 03:01:11;;;;;;;16.90;6.28;;;;;;;5.39;100.00;100563.03;5053006;28;20035;-61
2023/12/12 03:03:36;;;;;;;21.48;6.38;;;;;;;5.35;100.00;100567.13;5047655;28;20077;-61
2023/12/12 03:06:02;;;;;;;19.83;5.38;;;;;;;5.33;100.00;100563.59;5046970;28;20108;-61
2023/12/12 03:08:27;;;;;;;20.10;5.40;;;;;;;5.29;100.00;100557.44;5047375;28;20017;-61
2023/12/12 03:10:52;;;;;;;19.17;5.00;;;;;;;5.28;100.00;100555.69;5046837;28;20035;-61
2023/12/12 03:13:17;;;;;;;19.90;4.95;;;;;;;5.25;100.00;100547.81;5047030;28;20033;-61
2023/12/12 03:15:43;;;;;;;18.73;5.15;;;;;;;5.23;100.00;100552.00;5047670;28;20036;-61
2023/12/12 03:18:08;;;;;;;21.95;5.80;;;;;;;5.23;100.00;100541.72;5047136;28;20052;-61
2023/12/12 03:20:33;;;;;;;22.77;5.97;;;;;;;5.21;100.00;100542.44;5047134;28;20500;-61
2023/12/12 03:22:58;;;;;;;27.23;5.47;;;;;;;5.18;100.00;100532.03;5047737;28;20385;-62
2023/12/12 03:25:24;;;;;;;22.40;5.07;;;;;;;5.17;100.00;100538.84;5047862;28;20040;-61
2023/12/12 03:27:49;;;;;;;20.95;5.13;;;;;;;5.13;100.00;100540.38;5040714;28;20593;-61
2023/12/12 03:30:14;;;;;;;24.63;5.82;;;;;;;5.12;100.00;100533.50;5040524;28;20023;-61
2023/12/12 03:32:40;;;;;;;21.73;5.53;;;;;;;5.12;100.00;100535.19;5034113;28;20029;-61
2023/12/12 03:35:05;;;;;;;22.17;6.47;;;;;;;5.07;100.00;100532.38;5033289;28;20474;-61
2023/12/12 03:37:30;;;;;;;18.20;6.47;;;;;;;5.07;100.00;100534.97;5046499;28;20029;-62
2023/12/12 03:39:56;;;;;;;22.20;6.63;;;;;;;5.03;100.00;100528.78;5045719;28;20499;-61
2023/12/12 03:42:21;;;;;;;20.30;5.85;;;;;;;5.01;100.00;100527.81;5044410;28;20094;-62
2023/12/12 03:44:46;;;;;;;34.80;6.65;;;;;;;4.98;100.00;100519.97;5041612;28;20026;-60
2023/12/12 03:47:12;;;;;;;21.00;6.57;;;;;;;4.95;100.00;100530.06;5044671;28;20045;-62
2023/12/12 03:49:37;;;;;;;23.42;7.28;;;;;;;4.93;100.00;100517.16;5039251;28;20029;-61
2023/12/12 03:52:02;;;;;;;20.13;6.70;;;;;;;4.91;100.00;100512.78;5054283;28;20024;-61
2023/12/12 03:54:31;;;;;;;21.35;6.95;;;;;;;4.87;100.00;100509.16;5041257;28;20029;-61
2023/12/12 03:56:56;;;;;;;25.23;6.50;;;;;;;4.85;100.00;100497.03;5047600;28;20460;-61
2023/12/12 03:59:21;;;;;;;23.27;6.38;;;;;;;4.82;100.00;100495.22;5038301;28;20111;-62
2023/12/12 04:01:51;;;;;;;27.30;6.72;;;;;;;4.77;100.00;100481.25;5045603;28;20465;-61
2023/12/12 04:04:19;;;;;;;17.52;6.30;;;;;;;4.75;100.00;100490.56;5055978;28;20039;-62
2023/12/12 04:06:46;;;;;;;20.48;6.55;;;;;;;4.76;100.00;100493.22;5050715;28;20024;-61
2023/12/12 04:09:11;;;;;;;19.35;6.28;;;;;;;4.76;100.00;100488.09;5064444;28;20024;-61
2023/12/12 04:11:36;;;;;;;23.45;6.20;;;;;;;4.78;100.00;100486.47;5069625;28;20036;-62
2023/12/12 04:14:02;;;;;;;25.20;6.72;;;;;;;4.81;100.00;100485.72;5052823;28;20380;-61
2023/12/12 04:16:27;;;;;;;20.25;6.20;;;;;;;4.82;100.00;100481.50;5040511;28;20029;-62
2023/12/12 04:18:52;;;;;;;25.95;8.82;;;;;;;4.84;100.00;100479.88;5037929;28;20034;-61
2023/12/12 04:21:18;;;;;;;14.65;5.47;;;;;;;4.86;100.00;100480.81;5050743;28;20032;-61
2023/12/12 04:23:43;;;;;;;25.70;6.93;;;;;;;4.88;100.00;100481.78;5050093;28;20396;-61
2023/12/12 04:26:09;;;;;;;18.05;6.40;;;;;;;4.88;100.00;100477.53;5050922;28;20049;-61
2023/12/12 04:28:34;;;;;;;24.15;6.10;;;;;;;4.89;100.00;100478.41;5050731;28;20024;-62
2023/12/12 04:31:00;;;;;;;21.65;6.53;;;;;;;4.90;100.00;100475.03;5049115;28;20024;-61
2023/12/12 04:33:26;;;;;;;25.02;7.13;;;;;;;4.90;100.00;100475.03;5050607;28;20444;-61
2023/12/12 04:35:51;;;;;;;24.05;6.97;;;;;;;4.92;100.00;100479.47;5057962;28;20096;-61
2023/12/12 04:38:16;;;;;;;22.63;7.63;;;;;;;4.93;100.00;100470.03;5054133;28;20031;-62
2023/12/12 04:40:42;;;;;;;28.77;7.60;;;;;;;4.93;100.00;100470.03;5037807;28;20028;-61
2023/12/12 04:43:07;;;;;;;23.13;6.40;;;;;;;4.93;100.00;100472.59;5044556;28;20055;-62
2023/12/12 04:45:33;;;;;;;23.40;7.30;;;;;;;4.93;100.00;100470.94;5037530;28;20032;-61
2023/12/12 04:47:58;;;;;;;22.50;7.00;;;;;;;4.92;100.00;100463.16;5049696;28;20090;-61
2023/12/12 04:50:23;;;;;;;31.35;7.25;;;;;;;4.93;100.00;100464.91;5050062;28;20037;-61
2023/12/12 04:52:49;;;;;;;25.35;7.65;;;;;;;4.91;100.00;100466.53;5042655;28;20021;-61
2023/12/12 04:55:14;;;;;;;28.80;7.35;;;;;;;4.92;100.00;100465.72;5048925;28;20470;-61
2023/12/12 04:57:39;;;;;;;24.20;7.60;;;;;;;4.93;100.00;100458.09;5049313;28;20180;-61
2023/12/12 05:00:13;;;;;;;23.65;8.48;;;;;;;4.95;100.00;100453.03;5053758;28;20468;-62
2023/12/12 05:02:38;;;;;;;22.65;8.75;;;;;;;4.95;100.00;100453.03;5055090;28;20025;-61
2023/12/12 05:05:04;;;;;;;29.48;8.27;;;;;;;4.94;100.00;100453.84;5029803;28;20488;-62
2023/12/12 05:07:29;;;;;;;25.40;7.10;;;;;;;4.95;100.00;100447.88;5030098;28;20557;-61
2023/12/12 05:09:54;;;;;;;28.70;8.77;;;;;;;4.96;100.00;100444.53;5029783;28;20076;-62
2023/12/12 05:12:21;;;;;;;23.30;7.22;;;;;;;4.97;100.00;100443.72;5043598;28;20041;-61
2023/12/12 05:14:47;;;;;;;25.27;8.45;;;;;;;4.98;100.00;100436.91;5049430;28;20469;-61
2023/12/12 05:17:12;;;;;;;30.40;7.82;;;;;;;4.99;100.00;100434.41;5049026;28;20062;-61
2023/12/12 05:19:37;;;;;;;25.85;7.28;;;;;;;5.00;100.00;100431.00;5048288;28;20108;-61
2023/12/12 05:22:03;;;;;;;22.88;7.40;;;;;;;5.02;100.00;100431.09;5049845;28;20351;-61
2023/12/12 05:24:28;;;;;;;25.73;7.25;;;;;;;5.02;100.00;100428.50;5047805;28;20056;-62
2023/12/12 05:26:54;;;;;;;23.92;8.05;;;;;;;5.03;100.00;100430.28;5049554;28;20271;-61
2023/12/12 05:29:19;;;;;;;23.58;8.23;;;;;;;5.03;100.00;100420.91;5056497;28;20017;-61
2023/12/12 05:31:45;;;;;;;24.50;7.47;;;;;;;5.06;100.00;100415.03;5053280;28;20035;-61
2023/12/12 05:34:10;;;;;;;33.42;8.55;;;;;;;5.08;100.00;100425.38;5049624;28;20135;-61
2023/12/12 05:36:35;;;;;;;20.85;6.80;;;;;;;5.09;100.00;100417.72;5059903;28;20024;-61
2023/12/12 05:39:01;;;;;;;20.23;6.88;;;;;;;5.13;100.00;100421.31;5033225;28;20020;-61
2023/12/12 05:41:27;;;;;;;13.07;6.43;;;;;;;5.16;100.00;100424.06;5052405;28;20437;-62
2023/12/12 05:43:52;;;;;;;28.50;8.32;;;;;;;5.16;100.00;100427.50;5043767;28;20049;-61
2023/12/12 05:46:17;;;;;;;22.48;6.32;;;;;;;5.21;100.00;100424.25;5052900;28;20499;-62
2023/12/12 05:48:43;;;;;;;29.00;7.15;;;;;;;5.23;100.00;100418.41;5046849;28;20052;-61
2023/12/12 05:51:08;;;;;;;18.10;6.10;;;;;;;5.24;100.00;100425.28;5030632;28;20017;-61
2023/12/12 05:53:33;;;;;;;20.38;7.45;;;;;;;5.28;100.00;100421.19;5034571;28;20043;-62
2023/12/12 05:55:59;;;;;;;27.50;7.80;;;;;;;5.29;100.00;100423.81;5048776;28;20025;-61
2023/12/12 05:58:25;;;;;;;23.50;6.63;;;;;;;5.30;100.00;100424.72;5048002;28;20298;-60
2023/12/12 06:00:53;;;;;;;18.33;6.57;;;;;;;5.36;100.00;100424.97;5035952;28;20029;-61
2023/12/12 06:03:18;;;;;;;25.02;7.55;;;;;;;5.37;100.00;100413.03;5047860;28;20102;-61
2023/12/12 06:05:44;;;;;;;23.70;6.55;;;;;;;5.34;100.00;100421.47;5048820;28;20032;-61
2023/12/12 06:08:11;;;;;;;26.45;7.60;;;;;;;5.35;100.00;100412.94;5030400;28;20119;-61
2023/12/12 06:10:37;;;;;;;28.02;7.57;;;;;;;5.33;100.00;100414.56;5029018;28;20543;-62
2023/12/12 06:13:02;;;;;;;26.55;8.07;;;;;;;5.35;100.00;100409.50;5029889;28;20017;-62
2023/12/12 06:15:28;;;;;;;28.92;7.35;;;;;;;5.34;100.00;100416.34;5029265;28;20083;-62
2023/12/12 06:17:53;;;;;;;20.90;7.60;;;;;;;5.34;100.00;100411.22;5029867;28;20441;-61
2023/12/12 06:20:19;;;;;;;27.60;8.05;;;;;;;5.36;100.00;100409.56;5028437;28;20029;-61
2023/12/12 06:22:45;;;;;;;23.38;6.85;;;;;;;5.38;100.00;100412.19;5047365;28;20346;-61
2023/12/12 06:25:10;;;;;;;24.77;7.40;;;;;;;5.38;100.00;100412.19;5037311;28;20039;-62
2023/12/12 06:27:35;;;;;;;22.50;7.30;;;;;;;5.38;100.00;100407.06;5045905;28;20047;-61
2023/12/12 06:30:01;;;;;;;22.48;6.90;;;;;;;5.39;100.00;100398.56;5047417;28;20401;-61
2023/12/12 06:32:26;;;;;;;19.27;6.95;;;;;;;5.41;100.00;100396.94;5035803;28;20032;-62
2023/12/12 06:34:52;;;;;;;27.65;8.15;;;;;;;5.42;100.00;100393.56;5047436;28;20469;-61
2023/12/12 06:37:17;;;;;;;23.23;7.63;;;;;;;5.44;100.00;100391.03;5048036;28;20036;-62
2023/12/12 06:39:42;;;;;;;22.13;7.40;;;;;;;5.46;100.00;100385.19;5036063;28;20488;-61
2023/12/12 06:42:07;;;;;;;20.80;6.70;;;;;;;5.44;100.00;100381.66;5057675;28;20028;-62
2023/12/12 06:44:33;;;;;;;25.98;8.07;;;;;;;5.44;100.00;100381.66;5047680;28;20063;-61
2023/12/12 06:46:58;;;;;;;23.17;7.00;;;;;;;5.45;100.00;100378.25;5048588;28;20389;-62
2023/12/12 06:49:23;;;;;;;23.58;6.30;;;;;;;5.46;100.00;100369.75;5047516;28;20313;-61
2023/12/12 06:51:49;;;;;;;34.22;7.97;;;;;;;5.48;100.00;100368.16;5048196;28;20527;-61
2023/12/12 06:54:15;;;;;;;24.75;8.32;;;;;;;5.45;100.00;100365.41;5047023;28;20032;-62
2023/12/12 06:56:41;;;;;;;21.48;7.28;;;;;;;5.50;100.00;100363.97;5048901;28;20374;-62
2023/12/12 06:59:07;;;;;;;22.13;7.05;;;;;;;5.53;100.00;100358.94;5046459;28;20481;-61
2023/12/12 07:01:33;;;;;;;24.85;7.85;;;;;;;5.53;100.00;100363.19;5046954;28;20032;-61
2023/12/12 07:03:58;;;;;;;20.52;7.15;;;;;;;5.55;100.00;100360.69;5047418;28;20033;-62
2023/12/12 07:06:23;;;;;;;24.98;6.25;;;;;;;5.57;100.00;100351.38;5047845;28;20025;-62
2023/12/12 07:08:49;;;;;;;27.55;8.20;;;;;;;5.57;100.00;100351.38;5046725;28;20024;-61
2023/12/12 07:11:15;;;;;;;25.90;8.07;;;;;;;5.59;100.00;100344.59;5047074;28;20031;-61
2023/12/12 07:13:40;;;;;;;22.52;7.05;;;;;;;5.58;100.00;100336.00;5045626;28;20029;-62
2023/12/12 07:16:06;;;;;;;23.30;6.47;;;;;;;5.59;100.00;100348.06;5036735;28;20408;-61
2023/12/12 07:18:32;;;;;;;24.23;7.32;;;;;;;5.61;100.00;100343.00;5056834;28;20025;-61
2023/12/12 07:20:58;;;;;;;25.98;6.68;;;;;;;5.61;100.00;100343.00;5042617;28;20048;-62
2023/12/12 07:23:23;;;;;;;23.65;6.43;;;;;;;5.61;100.00;100345.56;5043197;28;20028;-62
2023/12/12 07:25:48;;;;;;;20.77;7.05;;;;;;;5.61;100.00;100341.28;5048968;28;20194;-62
2023/12/12 07:28:14;;;;;;;27.42;7.57;;;;;;;5.64;100.00;100340.53;5051980;28;20380;-62
2023/12/12 07:30:39;;;;;;;25.08;6.32;;;;;;;5.67;100.00;100343.25;5043047;28;20433;-61
2023/12/12 07:33:04;;;;;;;20.33;6.53;;;;;;;5.67;100.00;100332.97;5042686;28;20030;-61
2023/12/12 07:35:30;;;;;;;17.25;6.03;;;;;;;5.72;100.00;100336.59;5048684;28;20086;-62
2023/12/12 07:37:55;;;;;;;25.48;6.35;;;;;;;5.73;100.00;100338.38;5044993;28;20404;-61
2023/12/12 07:40:20;;;;;;;24.20;6.22;;;;;;;5.72;100.00;100331.47;5027252;28;20064;-61
2023/12/12 07:42:45;;;;;;;19.83;5.95;;;;;;;5.73;100.00;100335.81;5038312;28;20055;-61
2023/12/12 07:45:11;;;;;;;22.98;6.53;;;;;;;5.76;100.00;100340.19;5046262;28;20194;-62
2023/12/12 07:47:37;;;;;;;21.23;6.10;;;;;;;5.80;100.00;100328.34;5042795;28;20055;-62
2023/12/12 07:50:05;;;;;;;19.88;5.40;;;;;;;5.81;100.00;100315.56;5053328;28;20480;-61
2023/12/12 07:52:31;;;;;;;24.90;6.63;;;;;;;5.83;100.00;100318.22;5058325;28;20021;-62
2023/12/12 07:54:56;;;;;;;27.27;7.13;;;;;;;5.82;100.00;100312.19;5051192;28;20048;-61
2023/12/12 07:57:22;;;;;;;26.00;7.75;;;;;;;5.85;100.00;100311.41;5037812;28;20480;-61
2023/12/12 07:59:47;;;;;;;29.52;7.70;;;;;;;5.92;100.00;100303.16;5032683;28;20024;-61
2023/12/12 08:02:12;;;;;;;19.63;7.15;;;;;;;5.98;100.00;100303.44;5032002;28;20078;-62
2023/12/12 08:04:37;;;;;;;28.13;6.78;;;;;;;6.01;100.00;100302.66;5041968;28;20569;-62
2023/12/12 08:07:05;;;;;;;19.67;6.72;;;;;;;6.04;100.00;100301.94;5029899;28;20385;-62
2023/12/12 08:09:30;;;;;;;23.83;6.13;;;;;;;6.09;100.00;100297.88;5062533;28;20021;-61
2023/12/12 08:11:57;;;;;;;24.23;6.45;;;;;;;6.12;100.00;100303.16;5051870;28;20029;-61
2023/12/12 08:14:22;;;;;;;29.05;7.38;;;;;;;6.16;100.00;100296.44;5063228;28;20476;-61
2023/12/12 08:16:48;;;;;;;20.48;6.55;;;;;;;6.18;100.00;100300.84;5053073;28;20024;-62
2023/12/12 08:19:15;;;;;;;26.15;7.63;;;;;;;6.23;100.00;100294.19;5038214;28;20161;-62
2023/12/12 08:21:40;;;;;;;19.98;6.72;;;;;;;6.25;100.00;100291.69;5049779;28;20416;-62
2023/12/12 08:24:06;;;;;;;25.05;6.63;;;;;;;6.22;100.00;100289.84;5033403;28;20052;-61
2023/12/12 08:26:40;;;;;;;24.85;6.65;;;;;;;6.25;100.00;100291.69;5056828;28;20029;-62
2023/12/12 08:29:05;;;;;;;23.00;6.57;;;;;;;6.33;100.00;100284.28;5047046;28;21091;-61
2023/12/12 08:31:30;;;;;;;25.58;7.22;;;;;;;6.32;100.00;100272.22;5049652;28;20115;-61
2023/12/12 08:33:56;;;;;;;28.63;7.13;;;;;;;6.36;100.00;100268.94;5031123;28;20021;-62
2023/12/12 08:36:21;;;;;;;20.25;6.57;;;;;;;6.38;100.00;100271.59;5051590;28;20032;-62
2023/12/12 08:38:50;;;;;;;23.10;6.43;;;;;;;6.41;100.00;100271.69;5044051;28;20025;-62
2023/12/12 08:41:16;;;;;;;31.63;7.57;;;;;;;6.58;100.00;100269.81;5047265;28;20516;-62
2023/12/12 08:43:41;;;;;;;22.70;6.50;;;;;;;6.73;100.00;100264.34;5050839;28;20036;-62
2023/12/12 08:46:06;;;;;;;20.38;6.38;;;;;;;6.86;100.00;100260.56;5057340;28;20028;-62
2023/12/12 08:48:32;;;;;;;20.20;6.90;;;;;;;7.04;100.00;100256.91;5057525;28;20049;-61
2023/12/12 08:50:57;;;;;;;18.25;6.05;;;;;;;7.11;100.00;100250.28;5050317;28;20035;-62
2023/12/12 08:53:26;;;;;;;21.98;6.00;;;;;;;7.16;100.00;100253.94;5057742;28;20021;-61
2023/12/12 08:55:53;;;;;;;22.13;6.90;;;;;;;7.13;100.00;100251.22;5049451;28;20029;-61
2023/12/12 08:58:18;;;;;;;21.95;6.38;;;;;;;7.08;100.00;100245.91;5058166;28;20025;-61
2023/12/12 09:00:43;;;;;;;17.65;5.45;;;;;;;7.07;100.00;100255.34;5051914;28;20028;-61
2023/12/12 09:03:09;;;;;;;13.05;5.18;;;;;;;7.08;100.00;100253.66;5058111;28;20132;-61
2023/12/12 09:05:36;;;;;;;15.32;5.05;;;;;;;7.07;100.00;100244.13;5069531;28;20036;-62
2023/12/12 09:08:01;;;;;;;14.98;4.47;;;;;;;7.08;100.00;100240.75;5050141;28;20365;-61
2023/12/12 09:10:26;;;;;;;16.15;4.60;;;;;;;7.06;100.00;100239.81;5061070;28;20020;-62
2023/12/12 09:12:52;;;;;;;15.40;5.30;;;;;;;7.09;100.00;100233.09;5040685;28;20047;-62
2023/12/12 09:15:17;;;;;;;23.10;5.63;;;;;;;7.09;100.00;100233.09;5061898;28;20364;-61
2023/12/12 09:17:43;;;;;;;15.43;5.18;;;;;;;7.15;100.00;100227.28;5048556;28;20521;-61
2023/12/12 09:20:08;;;;;;;17.65;4.90;;;;;;;7.17;100.00;100224.75;5064306;28;20025;-61
2023/12/12 09:22:34;;;;;;;19.08;5.00;;;;;;;7.21;100.00;100214.59;5046919;28;20057;-62
2023/12/12 09:24:59;;;;;;;16.45;5.82;;;;;;;7.27;100.00;100216.53;5041554;28;20034;-62
2023/12/12 09:27:24;;;;;;;14.85;5.38;;;;;;;7.31;100.00;100212.34;5060058;28;20048;-62
2023/12/12 09:29:49;;;;;;;20.30;5.53;;;;;;;7.33;100.00;100221.91;5059848;28;20426;-62
2023/12/12 09:32:15;;;;;;;19.70;4.97;;;;;;;7.36;100.00;100212.53;5056410;28;20033;-61
2023/12/12 09:34:40;;;;;;;14.77;5.00;;;;;;;7.44;100.00;100216.25;5044699;28;20079;-62
2023/12/12 09:37:05;;;;;;;17.75;4.88;;;;;;;7.50;100.00;100213.88;5055919;28;20064;-62
2023/12/12 09:39:30;;;;;;;21.90;6.40;;;;;;;7.51;100.00;100210.47;5053622;28;20051;-62
2023/12/12 09:41:59;;;;;;;18.85;5.78;;;;;;;7.59;100.00;100205.56;5052181;28;20036;-62
2023/12/12 09:44:30;;;;;;;21.50;4.80;;;;;;;7.67;100.00;100211.88;5048833;28;20078;-62
2023/12/12 09:46:57;;;;;;;14.13;4.40;;;;;;;7.75;100.00;100208.69;5051888;28;20535;-62
2023/12/12 09:49:24;;;;;;;15.27;4.15;;;;;;;7.85;100.00;100204.69;5050161;28;20161;-62
2023/12/12 09:51:51;;;;;;;12.43;3.92;;;;;;;7.98;100.00;100200.81;5050364;28;20033;-62
2023/12/12 09:54:17;;;;;;;14.32;4.10;;;;;;;8.06;100.00;100201.94;5045974;28;20511;-62
2023/12/12 09:56:44;;;;;;;11.73;4.25;;;;;;;8.09;100.00;100196.91;5043035;28;20485;-61
2023/12/12 09:59:09;;;;;;;13.25;4.22;;;;;;;8.13;100.00;100185.81;5053511;28;20040;-61
2023/12/12 10:01:35;;;;;;;15.18;4.57;;;;;;;8.27;100.00;100183.66;5051008;28;20036;-62
2023/12/12 10:04:05;;;;;;;11.48;3.60;;;;;;;8.33;100.00;100174.38;5056173;28;20045;-62
2023/12/12 10:06:36;;;;;;;12.70;3.83;;;;;;;8.36;100.00;100170.19;5051482;28;20032;-62
2023/12/12 10:09:01;;;;;;;9.05;3.20;;;;;;;8.41;100.00;100166.03;5064800;28;20526;-62
2023/12/12 10:11:26;;;;;;;14.70;4.03;;;;;;;8.50;100.00;100155.09;5049931;28;20028;-62
2023/12/12 10:13:57;;;;;;;10.57;3.85;;;;;;;8.57;100.00;100151.03;5048169;28;20020;-62
2023/12/12 10:16:22;;;;;;;10.55;3.30;;;;;;;8.64;100.00;100137.47;5066581;28;20090;-62
2023/12/12 10:18:50;;;;;;;10.38;3.88;;;;;;;8.69;100.00;100134.13;5053479;28;20033;-61
2023/12/12 10:21:17;;;;;;;12.18;3.70;;;;;;;8.76;100.00;100128.31;5037741;28;20033;-62
2023/12/12 10:23:45;;;;;;;13.70;3.38;;;;;;;8.81;100.00;100128.44;5048756;28;20100;-61
2023/12/12 10:26:12;;;;;;;9.88;2.85;;;;;;;8.88;100.00;100131.25;5048079;28;20025;-62
2023/12/12 10:28:37;;;;;;;8.75;3.38;;;;;;;8.88;100.00;100125.19;5048026;28;20036;-62
2023/12/12 10:31:03;;;;;;;10.60;3.03;;;;;;;8.92;100.00;100127.03;5053748;28;20021;-62
2023/12/12 10:33:28;;;;;;;10.77;3.22;;;;;;;8.96;100.00;100123.69;5053566;28;20063;-62
2023/12/12 10:35:53;;;;;;;7.78;2.63;;;;;;;9.04;100.00;100118.72;5047666;28;20045;-62
2023/12/12 10:38:24;;;;;;;8.93;2.88;;;;;;;9.12;100.00;100119.78;5061325;28;20033;-63
2023/12/12 10:40:49;;;;;;;12.82;2.55;;;;;;;9.16;100.00;100114.69;5055327;28;20040;-62
2023/12/12 10:43:16;;;;;;;10.15;2.40;;;;;;;9.23;100.00;100114.91;5061216;28;20136;-62
2023/12/12 10:45:43;;;;;;;11.75;3.08;;;;;;;9.29;100.00;100111.63;5035785;28;20426;-62
2023/12/12 10:48:11;;;;;;;9.32;2.50;;;;;;;9.36;100.00;100103.19;5041773;28;20056;-62
2023/12/12 10:50:41;;;;;;;7.32;2.13;;;;;;;9.40;100.00;100103.25;5054836;28;20119;-62
2023/12/12 10:53:08;;;;;;;7.30;2.50;;;;;;;9.41;100.00;100099.84;5048598;28;20109;-62
2023/12/12 10:55:34;;;;;;;8.75;1.95;;;;;;;9.43;100.00;100099.03;5047438;28;20078;-61
2023/12/12 10:58:00;;;;;;;5.60;1.92;;;;;;;9.43;100.00;100100.72;5047003;28;20400;-63
2023/12/12 11:00:26;;;;;;;5.82;2.38;;;;;;;9.44;100.00;100099.91;5047673;28;20037;-61
2023/12/12 11:02:52;;;;;;;9.65;2.05;;;;;;;9.45;100.00;100086.13;5054331;28;20028;-63
2023/12/12 11:05:18;;;;;;;7.68;2.10;;;;;;;9.43;100.00;100087.78;5050367;28;20492;-62
2023/12/12 11:07:48;;;;;;;7.95;1.65;;;;;;;9.47;100.00;100081.88;5045486;28;20066;-63
2023/12/12 11:10:15;;;;;;;5.18;1.88;;;;;;;9.44;100.00;100067.19;5050142;28;20023;-62